createdAt,value
2023-01-26T00:01:29.215Z,0.85
2023-01-26T00:03:57.989Z,0.85
2023-01-26T00:06:27.696Z,0.86
2023-01-26T00:08:57.258Z,0.86
2023-01-26T00:11:29.078Z,0.87
2023-01-26T00:13:58.251Z,0.85
2023-01-26T00:16:26.905Z,0.85
2023-01-26T00:18:54.966Z,0.85
2023-01-26T00:21:24.385Z,0.86
2023-01-26T00:23:53.563Z,0.86
2023-01-26T00:26:22.744Z,0.85
2023-01-26T00:28:52.366Z,0.85
2023-01-26T00:31:22.999Z,0.85
2023-01-26T00:33:51.370Z,0.85
2023-01-26T00:36:19.548Z,0.85
2023-01-26T00:38:48.168Z,0.85
2023-01-26T00:41:29.875Z,0.85
2023-01-26T00:43:59.151Z,0.85
2023-01-26T00:46:27.091Z,0.85
2023-01-26T00:48:54.942Z,0.85
2023-01-26T00:51:22.779Z,0.85
2023-01-26T00:53:50.692Z,0.85
2023-01-26T00:56:20.007Z,0.85
2023-01-26T00:58:47.939Z,0.85
2023-01-26T01:01:17.133Z,0.86
2023-01-26T01:03:45.111Z,0.85
2023-01-26T01:06:13.022Z,0.84
2023-01-26T01:08:40.856Z,0.84
2023-01-26T01:11:10.554Z,0.85
2023-01-26T01:13:38.929Z,0.84
2023-01-26T01:16:08.430Z,0.85
2023-01-26T01:18:38.230Z,0.85
2023-01-26T01:21:07.945Z,0.84
2023-01-26T01:23:35.949Z,0.83
2023-01-26T01:26:04.868Z,0.84
2023-01-26T01:28:33.266Z,0.84
2023-01-26T01:31:01.406Z,0.85
2023-01-26T01:33:29.254Z,0.85
2023-01-26T01:36:00.166Z,0.86
2023-01-26T01:38:28.750Z,0.86
2023-01-26T01:40:57.488Z,0.85
2023-01-26T01:43:26.427Z,0.84
2023-01-26T01:45:54.961Z,0.85
2023-01-26T01:48:29.562Z,0.86
2023-01-26T01:51:04.157Z,0.85
2023-01-26T01:53:36.362Z,0.85
2023-01-26T01:56:09.367Z,0.84
2023-01-26T01:58:40.071Z,0.84
2023-01-26T02:01:08.416Z,0.85
2023-01-26T02:03:38.095Z,0.86
2023-01-26T02:06:14.756Z,0.85
2023-01-26T02:08:46.651Z,0.85
2023-01-26T02:11:19.938Z,0.85
2023-01-26T02:13:50.229Z,0.86
2023-01-26T02:16:18.705Z,0.85
2023-01-26T02:18:47.283Z,0.85
2023-01-26T02:21:19.280Z,0.86
2023-01-26T02:23:57.492Z,0.85
2023-01-26T02:26:28.665Z,0.86
2023-01-26T02:28:56.865Z,0.84
2023-01-26T02:31:25.299Z,0.84
2023-01-26T02:33:54.194Z,0.84
2023-01-26T02:36:23.855Z,0.84
2023-01-26T02:39:05.302Z,0.85
2023-01-26T02:41:52.650Z,0.83
2023-01-26T02:44:21.293Z,0.81
2023-01-26T02:46:49.097Z,0.82
2023-01-26T02:49:35.798Z,0.80
2023-01-26T02:52:05.231Z,0.79
2023-01-26T02:54:52.107Z,0.80
2023-01-26T02:57:21.392Z,0.80
2023-01-26T02:59:49.314Z,0.79
2023-01-26T03:02:17.237Z,0.79
2023-01-26T03:04:47.868Z,0.81
2023-01-26T03:07:16.043Z,0.79
2023-01-26T03:09:43.991Z,0.79
2023-01-26T03:12:13.028Z,0.79
2023-01-26T03:14:42.646Z,0.81
2023-01-26T03:17:10.494Z,0.79
2023-01-26T03:19:55.800Z,0.80
2023-01-26T03:22:41.041Z,0.78
2023-01-26T03:25:42.557Z,0.77
2023-01-26T03:28:13.823Z,0.75
2023-01-26T03:30:43.103Z,0.77
2023-01-26T03:33:11.296Z,0.76
2023-01-26T03:35:39.269Z,0.76
2023-01-26T03:38:07.038Z,0.76
2023-01-26T03:41:01.837Z,0.76
2023-01-26T03:43:47.410Z,0.75
2023-01-26T03:46:33.953Z,0.75
2023-01-26T03:49:19.348Z,0.73
2023-01-26T03:52:08.485Z,0.73
2023-01-26T03:54:53.657Z,0.72
2023-01-26T03:57:21.493Z,0.72
2023-01-26T03:59:50.093Z,0.73
2023-01-26T04:02:40.379Z,0.74
2023-01-26T04:05:27.868Z,0.72
2023-01-26T04:08:20.983Z,0.73
2023-01-26T04:10:51.114Z,0.70
2023-01-26T04:13:36.929Z,0.72
2023-01-26T04:16:27.085Z,0.71
2023-01-26T04:19:14.595Z,0.72
2023-01-26T04:21:42.565Z,0.70
2023-01-26T04:24:22.596Z,0.71
2023-01-26T04:26:54.752Z,0.71
2023-01-26T04:29:29.584Z,0.72
2023-01-26T04:31:57.666Z,0.72
2023-01-26T04:34:27.784Z,0.73
2023-01-26T04:36:55.773Z,0.74
2023-01-26T04:39:26.632Z,0.73
2023-01-26T04:41:57.167Z,0.75
2023-01-26T04:44:24.989Z,0.77
2023-01-26T04:46:53.124Z,0.76
2023-01-26T04:49:21.209Z,0.77
2023-01-26T04:51:50.564Z,0.77
2023-01-26T04:54:18.466Z,0.77
2023-01-26T04:56:46.878Z,0.77
2023-01-26T04:59:15.488Z,0.79
2023-01-26T05:01:44.397Z,0.78
2023-01-26T05:04:13.813Z,0.79
2023-01-26T05:06:45.025Z,0.77
2023-01-26T05:09:14.301Z,0.80
2023-01-26T05:11:44.340Z,0.78
2023-01-26T05:14:12.087Z,0.78
2023-01-26T05:17:12.532Z,0.78
2023-01-26T05:19:49.503Z,0.79
2023-01-26T05:22:35.795Z,0.79
2023-01-26T05:25:23.220Z,0.79
2023-01-26T05:28:04.851Z,0.77
2023-01-26T05:30:32.881Z,0.79
2023-01-26T05:33:03.346Z,0.81
2023-01-26T05:35:31.265Z,0.81
2023-01-26T05:37:59.886Z,0.81
2023-01-26T05:40:31.287Z,0.82
2023-01-26T05:42:59.234Z,0.81
2023-01-26T05:45:45.552Z,0.80
2023-01-26T05:48:15.283Z,0.79
2023-01-26T05:50:43.198Z,0.79
2023-01-26T05:53:20.082Z,0.80
2023-01-26T05:55:50.168Z,0.81
2023-01-26T05:58:21.678Z,0.79
2023-01-26T06:00:49.898Z,0.81
2023-01-26T06:03:24.581Z,0.81
2023-01-26T06:05:56.057Z,0.84
2023-01-26T06:08:33.100Z,0.83
2023-01-26T06:11:37.788Z,0.79
2023-01-26T06:14:28.496Z,0.81
2023-01-26T06:16:56.827Z,0.83
2023-01-26T06:19:25.310Z,0.82
2023-01-26T06:21:58.193Z,0.81
2023-01-26T06:24:26.184Z,0.83
2023-01-26T06:26:55.611Z,0.85
2023-01-26T06:29:23.528Z,0.84
2023-01-26T06:31:51.551Z,0.85
2023-01-26T06:34:19.942Z,0.86
2023-01-26T06:36:47.897Z,0.86
2023-01-26T06:39:23.852Z,0.85
2023-01-26T06:41:51.780Z,0.86
2023-01-26T06:44:21.077Z,0.87
2023-01-26T06:46:49.941Z,0.86
2023-01-26T06:49:17.753Z,0.87
2023-01-26T06:51:53.377Z,0.87
2023-01-26T06:54:21.987Z,0.86
2023-01-26T06:57:18.976Z,0.86
2023-01-26T07:00:06.979Z,0.88
2023-01-26T07:02:53.509Z,0.86
2023-01-26T07:05:21.386Z,0.88
2023-01-26T07:07:49.164Z,0.88
2023-01-26T07:10:17.121Z,0.89
2023-01-26T07:12:46.873Z,0.90
2023-01-26T07:15:16.159Z,0.91
2023-01-26T07:17:44.023Z,0.90
2023-01-26T07:20:12.959Z,0.92
2023-01-26T07:22:40.917Z,0.91
2023-01-26T07:25:09.196Z,0.92
2023-01-26T07:27:37.071Z,0.91
2023-01-26T07:30:05.500Z,0.93
2023-01-26T07:32:34.653Z,0.93
2023-01-26T07:35:02.488Z,0.93
2023-01-26T07:37:30.701Z,0.94
2023-01-26T07:39:58.440Z,0.95
2023-01-26T07:42:26.205Z,0.95
2023-01-26T07:45:06.930Z,0.95
2023-01-26T07:47:37.568Z,0.96
2023-01-26T07:50:07.227Z,0.95
2023-01-26T07:52:35.012Z,0.96
2023-01-26T07:55:02.897Z,0.97
2023-01-26T07:57:30.728Z,0.97
2023-01-26T07:59:58.681Z,0.97
2023-01-26T08:02:26.499Z,0.97
2023-01-26T08:04:55.726Z,0.98
2023-01-26T08:07:23.500Z,0.97
2023-01-26T08:09:51.321Z,0.99
2023-01-26T08:12:19.226Z,0.99
2023-01-26T08:14:47.429Z,1.00
2023-01-26T08:17:17.368Z,0.99
2023-01-26T08:19:45.527Z,1.00
2023-01-26T08:22:14.840Z,1.01
2023-01-26T08:24:42.792Z,1.01
2023-01-26T08:27:10.880Z,1.03
2023-01-26T08:29:38.831Z,1.04
2023-01-26T08:32:08.310Z,1.06
2023-01-26T08:34:36.570Z,1.07
2023-01-26T08:37:04.617Z,1.08
2023-01-26T08:39:34.007Z,1.10
2023-01-26T08:42:01.877Z,1.10
2023-01-26T08:44:29.664Z,1.11
2023-01-26T08:46:57.429Z,1.12
2023-01-26T08:49:25.344Z,1.13
2023-01-26T08:51:53.283Z,1.15
2023-01-26T08:54:21.079Z,1.15
2023-01-26T08:56:50.224Z,1.16
2023-01-26T08:59:17.995Z,1.16
2023-01-26T09:01:45.862Z,1.16
2023-01-26T09:04:13.736Z,1.16
2023-01-26T09:06:41.574Z,1.17
2023-01-26T09:09:13.156Z,1.18
2023-01-26T09:11:41.106Z,1.20
2023-01-26T09:14:10.306Z,1.20
2023-01-26T09:16:38.201Z,1.20
2023-01-26T09:19:06.035Z,1.21
2023-01-26T09:21:34.129Z,1.20
2023-01-26T09:24:02.562Z,1.20
2023-01-26T09:26:31.259Z,1.20
2023-01-26T09:28:59.295Z,1.21
2023-01-26T09:31:28.755Z,1.21
2023-01-26T09:33:56.562Z,1.20
2023-01-26T09:36:24.413Z,1.20
2023-01-26T09:38:54.241Z,1.21
2023-01-26T09:41:44.375Z,1.23
2023-01-26T09:44:19.726Z,1.22
2023-01-26T09:47:02.673Z,1.23
2023-01-26T09:49:38.192Z,1.21
2023-01-26T09:52:11.403Z,1.23
2023-01-26T09:54:42.838Z,1.24
2023-01-26T09:57:17.648Z,1.26
2023-01-26T09:59:49.962Z,1.25
2023-01-26T10:02:30.547Z,1.25
2023-01-26T10:05:02.546Z,1.27
2023-01-26T10:07:30.457Z,1.25
2023-01-26T10:09:58.427Z,1.28
2023-01-26T10:12:31.708Z,1.29
2023-01-26T10:15:03.930Z,1.30
2023-01-26T10:17:36.797Z,1.29
2023-01-26T10:20:07.379Z,1.07
2023-01-26T10:22:44.437Z,1.28
2023-01-26T10:25:18.407Z,1.30
2023-01-26T10:27:46.956Z,1.29
2023-01-26T10:30:16.583Z,1.31
2023-01-26T10:32:48.024Z,1.32
2023-01-26T10:35:19.857Z,1.31
2023-01-26T10:37:48.302Z,1.30
2023-01-26T10:40:17.398Z,1.32
2023-01-26T10:42:56.240Z,1.35
2023-01-26T10:45:30.493Z,1.35
2023-01-26T10:48:17.636Z,1.36
2023-01-26T10:50:45.801Z,1.33
2023-01-26T10:53:19.095Z,1.37
2023-01-26T10:56:00.053Z,1.38
2023-01-26T10:58:44.998Z,1.38
2023-01-26T11:01:15.634Z,1.35
2023-01-26T11:04:01.451Z,1.38
2023-01-26T11:06:30.518Z,1.37
2023-01-26T11:09:11.313Z,1.38
2023-01-26T11:11:42.906Z,1.37
2023-01-26T11:14:12.788Z,1.39
2023-01-26T11:16:42.939Z,1.40
2023-01-26T11:19:15.181Z,1.40
2023-01-26T11:21:47.532Z,1.39
2023-01-26T11:24:21.487Z,1.40
2023-01-26T11:27:13.807Z,1.42
2023-01-26T11:29:54.331Z,1.42
2023-01-26T11:32:31.373Z,1.42
2023-01-26T11:35:14.186Z,1.45
2023-01-26T11:37:46.256Z,1.41
2023-01-26T11:40:38.182Z,1.46
2023-01-26T11:43:35.754Z,1.45
2023-01-26T11:46:26.945Z,1.46
2023-01-26T11:49:09.751Z,1.49
2023-01-26T11:51:48.791Z,1.49
2023-01-26T11:54:31.220Z,1.52
2023-01-26T11:57:09.414Z,1.52
2023-01-26T11:59:42.959Z,1.54
2023-01-26T12:02:27.707Z,1.57
2023-01-26T12:04:58.766Z,1.55
2023-01-26T12:07:31.285Z,1.58
2023-01-26T12:10:01.541Z,1.57
2023-01-26T12:12:38.358Z,1.61
2023-01-26T12:15:14.381Z,1.62
2023-01-26T12:17:52.454Z,1.62
2023-01-26T12:20:28.458Z,1.63
2023-01-26T12:23:04.828Z,1.63
2023-01-26T12:25:36.007Z,1.64
2023-01-26T12:28:17.942Z,1.66
2023-01-26T12:30:53.393Z,1.65
2023-01-26T12:33:21.498Z,1.65
2023-01-26T12:36:05.994Z,1.68
2023-01-26T12:38:44.670Z,1.70
2023-01-26T12:41:19.987Z,1.69
2023-01-26T12:43:58.260Z,1.71
2023-01-26T12:46:32.501Z,1.72
2023-01-26T12:49:05.521Z,1.74
2023-01-26T12:51:36.172Z,1.52
2023-01-26T12:54:11.991Z,1.71
2023-01-26T12:56:45.925Z,1.76
2023-01-26T12:59:38.898Z,1.78
2023-01-26T13:02:20.419Z,1.78
2023-01-26T13:04:49.281Z,1.79
2023-01-26T13:07:36.539Z,1.82
2023-01-26T13:10:30.784Z,1.82
2023-01-26T13:13:00.844Z,1.84
2023-01-26T13:15:30.300Z,1.86
2023-01-26T13:18:00.447Z,1.87
2023-01-26T13:20:52.112Z,1.87
2023-01-26T13:23:53.154Z,1.85
2023-01-26T13:26:26.501Z,1.88
2023-01-26T13:29:32.674Z,1.91
2023-01-26T13:32:02.737Z,1.90
2023-01-26T13:34:36.687Z,1.92
2023-01-26T13:37:09.952Z,1.93
2023-01-26T13:39:42.449Z,1.94
2023-01-26T13:42:21.495Z,1.95
2023-01-26T13:44:57.717Z,1.96
2023-01-26T13:47:29.409Z,1.97
2023-01-26T13:49:57.224Z,1.97
2023-01-26T13:52:26.979Z,1.99
2023-01-26T13:54:57.761Z,1.99
2023-01-26T13:57:28.524Z,2.01
2023-01-26T13:59:59.081Z,2.01
2023-01-26T14:02:28.589Z,2.01
2023-01-26T14:04:58.223Z,2.02
2023-01-26T14:07:29.540Z,2.04
2023-01-26T14:10:01.675Z,2.03
2023-01-26T14:12:34.488Z,1.98
2023-01-26T14:15:05.714Z,2.01
2023-01-26T14:17:36.633Z,2.04
2023-01-26T14:20:22.125Z,2.05
2023-01-26T14:23:04.210Z,2.06
2023-01-26T14:25:32.234Z,2.04
2023-01-26T14:28:01.468Z,2.07
2023-01-26T14:30:31.729Z,2.07
2023-01-26T14:33:04.965Z,2.09
2023-01-26T14:35:33.385Z,2.08
2023-01-26T14:38:15.076Z,2.10
2023-01-26T14:40:47.196Z,2.09
2023-01-26T14:43:17.228Z,2.08
2023-01-26T14:45:50.006Z,2.10
2023-01-26T14:48:21.754Z,2.09
2023-01-26T14:50:50.092Z,2.11
2023-01-26T14:53:22.131Z,2.13
2023-01-26T14:55:51.689Z,2.12
2023-01-26T14:58:26.327Z,2.14
2023-01-26T15:00:54.893Z,2.13
2023-01-26T15:03:27.254Z,2.15
2023-01-26T15:06:07.452Z,2.15
2023-01-26T15:08:36.356Z,2.13
2023-01-26T15:11:21.751Z,2.13
2023-01-26T15:13:55.256Z,2.13
2023-01-26T15:16:25.046Z,2.12
2023-01-26T15:18:59.848Z,2.14
2023-01-26T15:21:33.906Z,2.14
2023-01-26T15:24:01.934Z,2.11
2023-01-26T15:26:32.773Z,2.14
2023-01-26T15:29:05.717Z,2.16
2023-01-26T15:31:35.252Z,1.93
2023-01-26T15:34:04.086Z,2.11
2023-01-26T15:36:35.241Z,2.16
2023-01-26T15:39:12.188Z,2.17
2023-01-26T15:41:40.214Z,2.17
2023-01-26T15:44:15.885Z,2.21
2023-01-26T15:46:44.737Z,2.20
2023-01-26T15:49:12.537Z,2.20
2023-01-26T15:51:40.645Z,2.22
2023-01-26T15:54:11.157Z,2.22
2023-01-26T15:56:39.243Z,2.24
2023-01-26T15:59:07.148Z,2.24
2023-01-26T16:01:36.537Z,2.28
2023-01-26T16:04:04.299Z,2.27
2023-01-26T16:06:33.817Z,2.28
2023-01-26T16:09:01.639Z,2.29
2023-01-26T16:11:32.488Z,2.32
2023-01-26T16:14:04.102Z,2.32
2023-01-26T16:16:33.518Z,2.34
2023-01-26T16:19:02.827Z,2.34
2023-01-26T16:21:34.991Z,2.35
2023-01-26T16:24:03.633Z,2.33
2023-01-26T16:26:32.522Z,2.37
2023-01-26T16:29:00.407Z,2.37
2023-01-26T16:31:30.464Z,2.39
2023-01-26T16:33:59.019Z,2.38
2023-01-26T16:36:28.608Z,2.40
2023-01-26T16:38:56.567Z,2.39
2023-01-26T16:41:27.606Z,2.42
2023-01-26T16:43:56.666Z,2.42
2023-01-26T16:46:24.885Z,2.42
2023-01-26T16:48:53.144Z,2.44
2023-01-26T16:51:24.967Z,2.44
2023-01-26T16:53:55.378Z,2.46
2023-01-26T16:56:24.615Z,2.46
2023-01-26T16:58:52.763Z,2.47
2023-01-26T17:01:23.084Z,2.50
2023-01-26T17:03:52.055Z,2.49
2023-01-26T17:06:20.727Z,2.50
2023-01-26T17:08:49.274Z,2.51
2023-01-26T17:11:25.519Z,2.53
2023-01-26T17:13:55.908Z,2.52
2023-01-26T17:16:25.335Z,2.55
2023-01-26T17:18:53.402Z,2.54
2023-01-26T17:21:21.820Z,2.55
2023-01-26T17:23:50.903Z,2.57
2023-01-26T17:26:21.558Z,2.59
2023-01-26T17:28:50.902Z,2.60
2023-01-26T17:31:20.334Z,2.60
2023-01-26T17:33:50.049Z,2.62
2023-01-26T17:36:19.540Z,2.62
2023-01-26T17:38:48.020Z,2.63
2023-01-26T17:41:15.863Z,2.63
2023-01-26T17:43:45.106Z,2.66
2023-01-26T17:46:15.049Z,2.66
2023-01-26T17:48:45.268Z,2.66
2023-01-26T17:51:16.550Z,2.68
2023-01-26T17:53:46.365Z,2.69
2023-01-26T17:56:16.689Z,2.70
2023-01-26T17:58:48.970Z,2.71
2023-01-26T18:01:17.036Z,2.69
2023-01-26T18:03:45.075Z,2.72
2023-01-26T18:06:13.115Z,2.72
2023-01-26T18:08:41.328Z,2.73
2023-01-26T18:11:12.308Z,2.75
2023-01-26T18:13:40.540Z,2.74
2023-01-26T18:16:13.090Z,2.76
2023-01-26T18:18:41.010Z,2.74
2023-01-26T18:21:13.877Z,2.79
2023-01-26T18:23:44.924Z,2.79
2023-01-26T18:26:13.221Z,2.79
2023-01-26T18:28:41.962Z,2.80
2023-01-26T18:31:13.291Z,2.82
2023-01-26T18:33:41.269Z,2.81
2023-01-26T18:36:11.991Z,2.83
2023-01-26T18:38:40.096Z,2.83
2023-01-26T18:41:12.005Z,2.86
2023-01-26T18:43:40.298Z,2.84
2023-01-26T18:46:08.929Z,2.85
2023-01-26T18:48:38.438Z,2.86
2023-01-26T18:51:08.609Z,2.87
2023-01-26T18:53:38.504Z,2.88
2023-01-26T18:56:08.090Z,2.89
2023-01-26T18:58:37.872Z,2.90
2023-01-26T19:01:09.753Z,2.91
2023-01-26T19:03:41.639Z,2.91
2023-01-26T19:06:10.331Z,2.92
2023-01-26T19:08:38.818Z,2.92
2023-01-26T19:11:07.952Z,2.93
2023-01-26T19:13:36.373Z,2.94
2023-01-26T19:16:05.861Z,2.95
2023-01-26T19:18:35.336Z,2.95
2023-01-26T19:21:05.735Z,2.97
2023-01-26T19:23:34.099Z,2.96
2023-01-26T19:26:01.970Z,2.99
2023-01-26T19:28:29.843Z,2.99
2023-01-26T19:31:04.262Z,3.03
2023-01-26T19:33:32.150Z,3.01
2023-01-26T19:36:02.710Z,3.02
2023-01-26T19:38:33.122Z,3.03
2023-01-26T19:41:02.184Z,3.05
2023-01-26T19:43:30.268Z,3.05
2023-01-26T19:45:58.206Z,3.06
2023-01-26T19:48:27.967Z,3.07
2023-01-26T19:51:00.837Z,3.09
2023-01-26T19:53:29.039Z,3.06
2023-01-26T19:55:59.778Z,3.10
2023-01-26T19:58:28.260Z,3.11
2023-01-26T20:01:00.406Z,3.14
2023-01-26T20:03:28.295Z,3.11
2023-01-26T20:05:56.105Z,3.14
2023-01-26T20:08:24.063Z,3.16
2023-01-26T20:10:51.991Z,3.17
2023-01-26T20:13:21.462Z,3.19
2023-01-26T20:15:49.345Z,3.18
2023-01-26T20:18:17.353Z,3.18
2023-01-26T20:20:50.346Z,3.19
2023-01-26T20:23:18.892Z,3.17
2023-01-26T20:25:47.388Z,3.17
2023-01-26T20:28:16.134Z,3.17
2023-01-26T20:30:45.722Z,3.17
2023-01-26T20:33:13.782Z,3.17
2023-01-26T20:35:43.453Z,3.15
2023-01-26T20:38:11.958Z,3.15
2023-01-26T20:40:40.103Z,3.15
2023-01-26T20:43:07.972Z,3.14
2023-01-26T20:45:35.780Z,3.13
2023-01-26T20:48:05.305Z,3.15
2023-01-26T20:50:40.009Z,3.14
2023-01-26T20:53:08.340Z,3.12
2023-01-26T20:55:36.634Z,3.13
2023-01-26T20:58:06.809Z,3.14
2023-01-26T21:00:36.078Z,3.14
2023-01-26T21:03:05.642Z,3.15
2023-01-26T21:05:33.550Z,3.15
2023-01-26T21:08:01.389Z,3.16
2023-01-26T21:10:29.214Z,3.16
2023-01-26T21:12:57.083Z,3.17
2023-01-26T21:15:25.027Z,3.17
2023-01-26T21:17:52.850Z,3.17
2023-01-26T21:20:22.075Z,3.19
2023-01-26T21:22:50.034Z,3.18
2023-01-26T21:25:18.167Z,3.19
2023-01-26T21:27:45.929Z,3.20
2023-01-26T21:30:14.595Z,3.20
2023-01-26T21:32:42.623Z,3.20
2023-01-26T21:35:11.127Z,3.21
2023-01-26T21:37:40.334Z,3.23
2023-01-26T21:40:09.771Z,3.22
2023-01-26T21:42:37.881Z,3.23
2023-01-26T21:45:24.074Z,3.24
2023-01-26T21:48:12.016Z,3.22
2023-01-26T21:51:12.809Z,3.23
2023-01-26T21:53:42.113Z,3.23
2023-01-26T21:56:10.130Z,3.24
2023-01-26T21:58:57.790Z,3.26
2023-01-26T22:01:26.156Z,3.25
2023-01-26T22:03:56.407Z,3.27
2023-01-26T22:06:24.569Z,3.28
2023-01-26T22:08:53.892Z,3.29
2023-01-26T22:11:22.674Z,3.30
2023-01-26T22:13:50.527Z,3.31
2023-01-26T22:16:18.891Z,3.32
2023-01-26T22:18:46.893Z,3.32
2023-01-26T22:21:14.797Z,3.33
2023-01-26T22:23:43.209Z,3.34
2023-01-26T22:26:14.542Z,3.34
2023-01-26T22:28:44.241Z,3.33
2023-01-26T22:31:12.237Z,3.34
2023-01-26T22:33:40.211Z,3.33
2023-01-26T22:36:10.130Z,3.34
2023-01-26T22:38:38.901Z,3.33
2023-01-26T22:41:07.917Z,3.33
2023-01-26T22:43:37.102Z,3.33
2023-01-26T22:46:06.378Z,3.34
2023-01-26T22:48:34.863Z,3.34
2023-01-26T22:51:07.872Z,3.34
2023-01-26T22:53:35.633Z,3.10
2023-01-26T22:56:04.761Z,3.29
2023-01-26T22:58:35.211Z,3.32
2023-01-26T23:01:11.611Z,3.32
2023-01-26T23:03:40.715Z,3.30
2023-01-26T23:06:12.384Z,3.32
2023-01-26T23:08:40.892Z,3.31
2023-01-26T23:11:11.814Z,3.30
2023-01-26T23:13:42.318Z,3.30
2023-01-26T23:16:12.339Z,3.31
2023-01-26T23:18:40.217Z,3.29
2023-01-26T23:21:09.102Z,3.30
2023-01-26T23:23:37.194Z,3.29
2023-01-26T23:26:05.277Z,3.30
2023-01-26T23:28:34.650Z,3.30
2023-01-26T23:31:02.625Z,3.30
2023-01-26T23:33:33.521Z,3.30
2023-01-26T23:36:01.652Z,3.29
2023-01-26T23:38:30.910Z,3.30
2023-01-26T23:41:00.313Z,3.30
2023-01-26T23:43:28.906Z,3.29
2023-01-26T23:45:57.014Z,3.29
2023-01-26T23:48:25.799Z,3.29
2023-01-26T23:50:58.229Z,3.29
2023-01-26T23:53:26.111Z,3.27
2023-01-26T23:55:54.196Z,3.27
2023-01-26T23:58:22.055Z,3.28
